createdAt,value
2019-04-30T00:00:40.816Z,21.68
2019-04-30T00:01:30.072Z,21.70
2019-04-30T00:02:35.642Z,21.70
2019-04-30T00:03:31.056Z,21.81
2019-04-30T00:04:34.592Z,21.75
2019-04-30T00:05:31.024Z,21.70
2019-04-30T00:06:34.642Z,21.74
2019-04-30T00:07:31.048Z,21.64
2019-04-30T00:08:34.459Z,21.67
2019-04-30T00:09:30.989Z,21.70
2019-04-30T00:10:39.585Z,21.67
2019-04-30T00:11:30.960Z,21.66
2019-04-30T00:12:30.948Z,21.74
2019-04-30T00:13:30.996Z,21.70
2019-04-30T00:14:37.250Z,21.64
2019-04-30T00:15:30.933Z,21.73
2019-04-30T00:16:31.052Z,21.77
2019-04-30T00:17:30.902Z,21.82
2019-04-30T00:18:34.897Z,21.77
2019-04-30T00:19:30.919Z,21.79
2019-04-30T00:20:34.223Z,21.77
2019-04-30T00:21:30.863Z,21.82
2019-04-30T00:22:33.808Z,21.82
2019-04-30T00:23:30.927Z,21.85
2019-04-30T00:24:29.829Z,21.83
2019-04-30T00:25:29.818Z,21.86
2019-04-30T00:26:29.806Z,21.81
2019-04-30T00:27:30.287Z,21.79
2019-04-30T00:28:29.781Z,21.79
2019-04-30T00:29:30.939Z,21.81
2019-04-30T00:30:29.787Z,21.82
2019-04-30T00:31:40.369Z,21.75
2019-04-30T00:32:29.741Z,21.74
2019-04-30T00:33:29.725Z,21.81
2019-04-30T00:34:30.947Z,21.73
2019-04-30T00:35:30.746Z,21.82
2019-04-30T00:36:34.126Z,21.73
2019-04-30T00:37:30.684Z,21.75
2019-04-30T00:38:33.531Z,21.79
2019-04-30T00:39:30.663Z,21.70
2019-04-30T00:40:30.215Z,21.70
2019-04-30T00:41:30.323Z,21.77
2019-04-30T00:42:29.639Z,21.74
2019-04-30T00:43:29.651Z,21.61
2019-04-30T00:44:29.612Z,21.74
2019-04-30T00:45:29.598Z,21.68
2019-04-30T00:46:29.614Z,21.66
2019-04-30T00:47:29.595Z,21.59
2019-04-30T00:48:31.175Z,21.64
2019-04-30T00:49:29.589Z,21.68
2019-04-30T00:50:33.957Z,21.68
2019-04-30T00:51:30.539Z,21.71
2019-04-30T00:52:33.780Z,21.74
2019-04-30T00:53:30.512Z,21.70
2019-04-30T00:54:30.976Z,21.71
2019-04-30T00:55:29.514Z,21.67
2019-04-30T00:56:29.489Z,21.66
2019-04-30T00:57:29.477Z,21.59
2019-04-30T00:58:30.384Z,21.64
2019-04-30T00:59:29.456Z,21.61
2019-04-30T01:00:29.744Z,21.64
2019-04-30T01:01:29.445Z,21.63
2019-04-30T01:02:40.876Z,21.56
2019-04-30T01:03:29.413Z,21.67
2019-04-30T01:04:29.417Z,21.58
2019-04-30T01:05:29.389Z,21.61
2019-04-30T01:06:29.382Z,21.63
2019-04-30T01:07:29.379Z,21.61
2019-04-30T01:08:29.360Z,21.70
2019-04-30T01:09:29.369Z,21.67
2019-04-30T01:10:29.382Z,21.61
2019-04-30T01:11:29.331Z,21.58
2019-04-30T01:12:35.912Z,21.58
2019-04-30T01:13:30.301Z,21.58
2019-04-30T01:14:32.002Z,21.63
2019-04-30T01:15:29.299Z,21.67
2019-04-30T01:16:32.931Z,21.59
2019-04-30T01:17:29.965Z,21.67
2019-04-30T01:18:32.073Z,21.61
2019-04-30T01:19:32.299Z,21.67
2019-04-30T01:20:32.636Z,21.64
2019-04-30T01:21:29.222Z,21.64
2019-04-30T01:22:32.850Z,21.63
2019-04-30T01:23:29.643Z,21.58
2019-04-30T01:24:31.571Z,21.64
2019-04-30T01:25:29.183Z,21.61
2019-04-30T01:26:30.997Z,21.67
2019-04-30T01:27:29.158Z,21.63
2019-04-30T01:28:29.202Z,21.64
2019-04-30T01:29:31.102Z,21.58
2019-04-30T01:30:30.120Z,21.63
2019-04-30T01:31:31.678Z,21.59
2019-04-30T01:32:30.100Z,21.53
2019-04-30T01:33:39.869Z,21.59
2019-04-30T01:34:29.456Z,21.61
2019-04-30T01:35:32.729Z,21.59
2019-04-30T01:36:29.362Z,21.61
2019-04-30T01:37:32.732Z,21.66
2019-04-30T01:38:29.045Z,21.58
2019-04-30T01:39:31.616Z,21.56
2019-04-30T01:40:29.033Z,21.56
2019-04-30T01:41:31.393Z,21.56
2019-04-30T01:42:28.994Z,21.58
2019-04-30T01:43:33.547Z,21.55
2019-04-30T01:44:29.971Z,21.59
2019-04-30T01:45:31.574Z,21.48
2019-04-30T01:46:29.202Z,21.53
2019-04-30T01:47:31.195Z,21.49
2019-04-30T01:48:29.285Z,21.55
2019-04-30T01:49:36.317Z,21.45
2019-04-30T01:50:33.840Z,21.56
2019-04-30T01:51:29.902Z,21.59
2019-04-30T01:52:35.013Z,21.58
2019-04-30T01:53:29.878Z,21.59
2019-04-30T01:54:29.227Z,21.52
2019-04-30T01:55:29.422Z,21.55
2019-04-30T01:56:28.987Z,21.53
2019-04-30T01:57:29.302Z,21.56
2019-04-30T01:58:30.199Z,21.61
2019-04-30T01:59:29.176Z,21.49
2019-04-30T02:00:29.333Z,21.45
2019-04-30T02:01:31.142Z,21.56
2019-04-30T02:02:28.801Z,21.53
2019-04-30T02:03:29.301Z,21.55
2019-04-30T02:04:39.371Z,21.53
2019-04-30T02:05:28.856Z,21.52
2019-04-30T02:06:29.445Z,21.55
2019-04-30T02:07:28.897Z,21.53
2019-04-30T02:08:29.503Z,21.55
2019-04-30T02:09:28.755Z,21.52
2019-04-30T02:10:28.697Z,21.51
2019-04-30T02:11:28.943Z,21.51
2019-04-30T02:12:29.700Z,21.58
2019-04-30T02:13:31.182Z,21.49
2019-04-30T02:14:28.778Z,21.48
2019-04-30T02:15:29.167Z,21.56
2019-04-30T02:16:29.094Z,21.52
2019-04-30T02:17:29.281Z,21.56
2019-04-30T02:18:29.678Z,21.58
2019-04-30T02:19:28.807Z,21.52
2019-04-30T02:20:28.871Z,21.43
2019-04-30T02:21:30.065Z,21.46
2019-04-30T02:22:31.163Z,21.49
2019-04-30T02:23:29.725Z,21.53
2019-04-30T02:24:28.910Z,21.45
2019-04-30T02:25:29.602Z,21.48
2019-04-30T02:26:28.724Z,21.45
2019-04-30T02:27:29.435Z,21.51
2019-04-30T02:28:29.006Z,21.59
2019-04-30T02:29:29.685Z,21.53
2019-04-30T02:30:30.885Z,21.52
2019-04-30T02:31:30.994Z,21.46
2019-04-30T02:32:30.417Z,21.40
2019-04-30T02:33:30.615Z,21.51
2019-04-30T02:34:30.302Z,21.51
2019-04-30T02:35:40.640Z,21.48
2019-04-30T02:36:29.943Z,21.51
2019-04-30T02:37:30.102Z,21.58
2019-04-30T02:38:30.127Z,21.45
2019-04-30T02:39:30.246Z,21.51
2019-04-30T02:40:30.175Z,21.52
2019-04-30T02:41:29.276Z,21.51
2019-04-30T02:42:29.675Z,21.52
2019-04-30T02:43:30.053Z,21.43
2019-04-30T02:44:29.313Z,21.52
2019-04-30T02:45:29.968Z,21.49
2019-04-30T02:46:31.943Z,21.43
2019-04-30T02:47:30.198Z,21.53
2019-04-30T02:48:29.495Z,21.46
2019-04-30T02:49:30.361Z,21.55
2019-04-30T02:50:29.400Z,21.56
2019-04-30T02:51:29.898Z,21.53
2019-04-30T02:52:29.383Z,21.61
2019-04-30T02:53:29.246Z,21.56
2019-04-30T02:54:29.641Z,21.56
2019-04-30T02:55:29.670Z,21.61
2019-04-30T02:56:30.073Z,21.55
2019-04-30T02:57:29.964Z,21.59
2019-04-30T02:58:29.394Z,21.61
2019-04-30T02:59:30.013Z,21.58
2019-04-30T03:00:29.810Z,21.63
2019-04-30T03:01:30.553Z,21.55
2019-04-30T03:02:29.158Z,21.61
2019-04-30T03:03:29.948Z,21.58
2019-04-30T03:04:29.413Z,21.59
2019-04-30T03:05:30.964Z,21.61
2019-04-30T03:06:40.205Z,21.63
2019-04-30T03:07:29.481Z,21.56
2019-04-30T03:08:29.744Z,21.55
2019-04-30T03:09:29.718Z,21.58
2019-04-30T03:10:30.201Z,21.53
2019-04-30T03:11:30.138Z,21.58
2019-04-30T03:12:30.580Z,21.56
2019-04-30T03:13:29.939Z,21.55
2019-04-30T03:14:30.077Z,21.51
2019-04-30T03:15:29.862Z,21.55
2019-04-30T03:16:30.292Z,21.56
2019-04-30T03:17:29.397Z,21.56
2019-04-30T03:18:30.215Z,21.53
2019-04-30T03:19:29.574Z,21.56
2019-04-30T03:20:35.537Z,21.61
2019-04-30T03:21:29.096Z,21.66
2019-04-30T03:22:30.140Z,21.64
2019-04-30T03:23:29.335Z,21.59
2019-04-30T03:24:29.544Z,21.66
2019-04-30T03:25:29.800Z,21.58
2019-04-30T03:26:29.716Z,21.58
2019-04-30T03:27:30.140Z,21.55
2019-04-30T03:28:30.119Z,21.59
2019-04-30T03:29:30.320Z,21.58
2019-04-30T03:30:32.175Z,21.63
2019-04-30T03:31:32.034Z,21.55
2019-04-30T03:32:35.789Z,21.56
2019-04-30T03:33:32.530Z,21.61
2019-04-30T03:34:31.893Z,21.55
2019-04-30T03:35:32.306Z,21.66
2019-04-30T03:36:32.142Z,21.55
2019-04-30T03:37:39.649Z,21.52
2019-04-30T03:38:30.068Z,21.63
2019-04-30T03:39:29.692Z,21.61
2019-04-30T03:40:30.062Z,21.59
2019-04-30T03:41:33.069Z,21.58
2019-04-30T03:42:29.571Z,21.58
2019-04-30T03:43:30.178Z,21.61
2019-04-30T03:44:31.615Z,21.58
2019-04-30T03:45:30.044Z,21.67
2019-04-30T03:46:29.790Z,21.59
2019-04-30T03:47:30.053Z,21.63
2019-04-30T03:48:29.376Z,21.59
2019-04-30T03:49:29.684Z,21.58
2019-04-30T03:50:32.889Z,21.59
2019-04-30T03:51:30.257Z,21.68
2019-04-30T03:52:29.188Z,21.71
2019-04-30T03:53:29.678Z,21.67
2019-04-30T03:54:29.269Z,21.70
2019-04-30T03:55:29.431Z,21.68
2019-04-30T03:56:29.820Z,21.63
2019-04-30T03:57:30.117Z,21.71
2019-04-30T03:58:29.343Z,21.67
2019-04-30T03:59:29.823Z,21.68
2019-04-30T04:00:29.902Z,21.68
2019-04-30T04:01:29.448Z,21.73
2019-04-30T04:02:30.043Z,21.68
2019-04-30T04:03:29.716Z,21.73
2019-04-30T04:04:27.488Z,21.66
2019-04-30T04:05:29.676Z,21.77
2019-04-30T04:06:29.266Z,21.75
2019-04-30T04:07:29.807Z,21.73
2019-04-30T04:08:39.520Z,21.75
2019-04-30T04:09:29.785Z,21.73
2019-04-30T04:10:29.764Z,21.79
2019-04-30T04:11:29.573Z,21.79
2019-04-30T04:12:29.975Z,21.81
2019-04-30T04:13:30.073Z,21.79
2019-04-30T04:14:29.666Z,21.74
2019-04-30T04:15:29.769Z,21.93
2019-04-30T04:16:29.361Z,21.90
2019-04-30T04:17:27.358Z,21.94
2019-04-30T04:18:30.072Z,21.91
2019-04-30T04:19:29.234Z,21.85
2019-04-30T04:20:29.783Z,21.89
2019-04-30T04:21:29.799Z,21.90
2019-04-30T04:22:30.284Z,21.89
2019-04-30T04:23:32.355Z,21.91
2019-04-30T04:24:30.253Z,21.91
2019-04-30T04:25:29.682Z,21.93
2019-04-30T04:26:29.664Z,21.96
2019-04-30T04:27:29.808Z,21.91
2019-04-30T04:28:29.765Z,21.89
2019-04-30T04:29:29.817Z,21.91
2019-04-30T04:30:29.618Z,22.01
2019-04-30T04:31:29.699Z,21.98
2019-04-30T04:32:30.481Z,22.01
2019-04-30T04:33:29.442Z,22.21
2019-04-30T04:34:27.160Z,22.44
2019-04-30T04:35:29.629Z,22.63
2019-04-30T04:36:29.945Z,22.82
2019-04-30T04:37:29.812Z,22.99
2019-04-30T04:38:30.169Z,23.18
2019-04-30T04:39:38.895Z,23.32
2019-04-30T04:40:27.104Z,23.35
2019-04-30T04:41:29.360Z,23.41
2019-04-30T04:42:32.510Z,23.50
2019-04-30T04:43:30.077Z,23.60
2019-04-30T04:44:29.378Z,23.68
2019-04-30T04:45:27.050Z,23.64
2019-04-30T04:46:27.051Z,23.64
2019-04-30T04:47:27.032Z,23.63
2019-04-30T04:48:29.691Z,23.75
2019-04-30T04:49:27.023Z,23.72
2019-04-30T04:50:27.026Z,23.75
2019-04-30T04:51:37.649Z,23.67
2019-04-30T04:52:31.115Z,23.69
2019-04-30T04:53:26.963Z,23.63
2019-04-30T04:54:26.955Z,23.68
2019-04-30T04:55:29.714Z,23.67
2019-04-30T04:56:26.953Z,23.71
2019-04-30T04:57:26.921Z,23.67
2019-04-30T04:58:26.914Z,23.75
2019-04-30T04:59:26.905Z,23.74
2019-04-30T05:00:29.198Z,23.74
2019-04-30T05:01:28.823Z,23.68
2019-04-30T05:02:26.867Z,23.64
2019-04-30T05:03:26.852Z,23.64
2019-04-30T05:04:26.855Z,23.62
2019-04-30T05:05:26.844Z,23.57
2019-04-30T05:06:26.880Z,23.67
2019-04-30T05:07:28.663Z,23.59
2019-04-30T05:08:28.454Z,23.60
2019-04-30T05:09:28.545Z,23.63
2019-04-30T05:10:39.122Z,23.57
2019-04-30T05:11:26.768Z,23.63
2019-04-30T05:12:26.799Z,23.63
2019-04-30T05:13:26.744Z,23.57
2019-04-30T05:14:28.696Z,23.53
2019-04-30T05:15:26.726Z,23.62
2019-04-30T05:16:26.717Z,23.59
2019-04-30T05:17:26.706Z,23.56
2019-04-30T05:18:26.737Z,23.64
2019-04-30T05:19:28.493Z,23.68
2019-04-30T05:20:26.677Z,23.62
2019-04-30T05:21:26.665Z,23.60
2019-04-30T05:22:26.654Z,23.62
2019-04-30T05:23:26.680Z,23.59
2019-04-30T05:24:28.563Z,23.67
2019-04-30T05:25:26.622Z,23.57
2019-04-30T05:26:28.581Z,23.62
2019-04-30T05:27:26.597Z,23.64
2019-04-30T05:28:26.590Z,23.68
2019-04-30T05:29:26.613Z,23.64
2019-04-30T05:30:26.569Z,23.68
2019-04-30T05:31:28.598Z,23.64
2019-04-30T05:32:26.541Z,23.67
2019-04-30T05:33:28.483Z,23.68
2019-04-30T05:34:26.523Z,23.69
2019-04-30T05:35:28.718Z,23.67
2019-04-30T05:36:26.507Z,23.75
2019-04-30T05:37:28.384Z,23.74
2019-04-30T05:38:26.483Z,23.72
2019-04-30T05:39:28.382Z,23.69
2019-04-30T05:40:28.658Z,23.78
2019-04-30T05:41:36.441Z,23.69
2019-04-30T05:42:28.195Z,23.71
2019-04-30T05:43:26.433Z,23.82
2019-04-30T05:44:26.421Z,23.81
2019-04-30T05:45:26.445Z,23.78
2019-04-30T05:46:26.400Z,23.72
2019-04-30T05:47:26.386Z,23.74
2019-04-30T05:48:28.139Z,23.81
2019-04-30T05:49:26.360Z,23.79
2019-04-30T05:50:26.349Z,23.81
2019-04-30T05:51:26.375Z,23.79
2019-04-30T05:52:26.337Z,23.22
2019-04-30T05:53:26.320Z,22.21
2019-04-30T05:54:26.309Z,21.21
2019-04-30T05:55:26.295Z,20.58
2019-04-30T05:56:26.291Z,19.90
2019-04-30T05:57:26.341Z,19.16
2019-04-30T05:58:26.268Z,18.59
2019-04-30T05:59:26.254Z,17.89
2019-04-30T06:00:26.246Z,16.91
2019-04-30T06:01:26.242Z,16.13
2019-04-30T06:02:30.617Z,15.98
2019-04-30T06:03:30.719Z,15.71
2019-04-30T06:04:29.308Z,15.55
2019-04-30T06:05:26.198Z,15.11
2019-04-30T06:06:26.184Z,14.83
2019-04-30T06:07:26.169Z,14.36
2019-04-30T06:08:26.165Z,14.27
2019-04-30T06:09:31.640Z,14.26
2019-04-30T06:10:29.296Z,14.16
2019-04-30T06:11:26.124Z,13.80
2019-04-30T06:12:37.051Z,13.21
2019-04-30T06:13:26.104Z,12.56
2019-04-30T06:14:26.100Z,12.19
2019-04-30T06:15:26.090Z,11.79
2019-04-30T06:16:26.129Z,11.74
2019-04-30T06:17:26.059Z,11.69
2019-04-30T06:18:26.052Z,11.82
2019-04-30T06:19:26.038Z,12.03
2019-04-30T06:20:26.033Z,12.46
2019-04-30T06:21:26.017Z,12.99
2019-04-30T06:22:26.045Z,13.24
2019-04-30T06:23:26.002Z,13.17
2019-04-30T06:24:28.061Z,13.19
2019-04-30T06:25:32.495Z,13.24
2019-04-30T06:26:26.964Z,13.12
2019-04-30T06:27:25.960Z,12.98
2019-04-30T06:28:25.986Z,13.13
2019-04-30T06:29:25.935Z,13.03
2019-04-30T06:30:25.927Z,12.98
2019-04-30T06:31:32.209Z,12.67
2019-04-30T06:32:26.906Z,12.41
2019-04-30T06:33:25.892Z,12.15
2019-04-30T06:34:25.890Z,11.96
2019-04-30T06:35:25.912Z,11.59
2019-04-30T06:36:25.858Z,11.39
2019-04-30T06:37:25.847Z,11.30
2019-04-30T06:38:25.838Z,11.38
2019-04-30T06:39:25.830Z,11.77
2019-04-30T06:40:25.820Z,12.22
2019-04-30T06:41:25.843Z,12.40
2019-04-30T06:42:25.795Z,12.16
2019-04-30T06:43:36.152Z,12.03
2019-04-30T06:44:36.963Z,12.23
2019-04-30T06:45:26.763Z,12.51
2019-04-30T06:46:25.749Z,12.69
2019-04-30T06:47:32.713Z,12.92
2019-04-30T06:48:26.729Z,13.21
2019-04-30T06:49:25.718Z,13.46
2019-04-30T06:50:25.704Z,13.63
2019-04-30T06:51:25.699Z,13.63
2019-04-30T06:52:25.682Z,13.68
2019-04-30T06:53:25.721Z,13.84
2019-04-30T06:54:25.664Z,14.16
2019-04-30T06:55:25.656Z,14.35
2019-04-30T06:56:25.641Z,14.36
2019-04-30T06:57:25.699Z,14.36
2019-04-30T06:58:25.621Z,14.54
2019-04-30T06:59:25.654Z,14.42
2019-04-30T07:00:32.972Z,14.44
2019-04-30T07:01:26.613Z,14.42
2019-04-30T07:02:25.580Z,14.30
2019-04-30T07:03:25.579Z,14.34
2019-04-30T07:04:25.564Z,14.46
2019-04-30T07:05:25.554Z,14.75
2019-04-30T07:06:29.798Z,15.07
2019-04-30T07:07:36.241Z,15.28
2019-04-30T07:08:36.122Z,15.52
2019-04-30T07:09:30.670Z,15.58
2019-04-30T07:10:26.507Z,15.41
2019-04-30T07:11:25.488Z,14.80
2019-04-30T07:12:28.012Z,14.49
2019-04-30T07:13:25.460Z,14.45
2019-04-30T07:14:41.769Z,14.29
2019-04-30T07:15:25.437Z,14.19
2019-04-30T07:16:25.449Z,13.86
2019-04-30T07:17:25.421Z,13.80
2019-04-30T07:18:25.404Z,13.76
2019-04-30T07:19:34.553Z,13.79
2019-04-30T07:20:26.400Z,13.69
2019-04-30T07:21:25.378Z,13.84
2019-04-30T07:22:37.594Z,13.98
2019-04-30T07:23:26.353Z,13.98
2019-04-30T07:24:25.342Z,14.11
2019-04-30T07:25:25.334Z,14.08
2019-04-30T07:26:25.317Z,13.88
2019-04-30T07:27:25.316Z,14.02
2019-04-30T07:28:42.717Z,14.16
2019-04-30T07:29:26.333Z,14.24
2019-04-30T07:30:25.277Z,14.29
2019-04-30T07:31:25.267Z,14.30
2019-04-30T07:32:25.272Z,14.60
2019-04-30T07:33:25.250Z,14.95
2019-04-30T07:34:25.278Z,15.44
2019-04-30T07:35:25.221Z,15.73
2019-04-30T07:36:42.451Z,15.84
2019-04-30T07:37:26.201Z,15.86
2019-04-30T07:38:25.189Z,16.08
2019-04-30T07:39:29.313Z,16.33
2019-04-30T07:40:26.216Z,16.48
2019-04-30T07:41:25.163Z,16.62
2019-04-30T07:42:25.148Z,16.69
2019-04-30T07:43:25.144Z,16.90
2019-04-30T07:44:33.333Z,17.09
2019-04-30T07:46:41.203Z,17.33
2019-04-30T07:47:39.558Z,16.77
2019-04-30T07:48:39.953Z,15.80
2019-04-30T07:49:49.841Z,14.95
2019-04-30T07:50:41.132Z,14.56
2019-04-30T07:51:41.373Z,14.23
2019-04-30T07:52:56.852Z,14.52
2019-04-30T07:53:40.490Z,14.69
2019-04-30T07:54:39.606Z,14.98
2019-04-30T07:55:39.280Z,15.25
2019-04-30T07:56:41.364Z,15.56
2019-04-30T07:57:40.402Z,15.81
2019-04-30T07:58:39.072Z,16.01
2019-04-30T07:59:39.720Z,15.73
2019-04-30T08:00:40.285Z,15.22
2019-04-30T08:01:58.082Z,14.83
2019-04-30T08:02:43.088Z,14.41
2019-04-30T08:03:39.574Z,14.24
2019-04-30T08:04:40.717Z,14.21
2019-04-30T08:05:40.150Z,14.01
2019-04-30T08:06:39.781Z,14.01
2019-04-30T08:07:39.161Z,13.98
2019-04-30T08:08:40.670Z,14.20
2019-04-30T08:09:41.877Z,14.38
2019-04-30T08:10:39.403Z,14.61
2019-04-30T08:11:41.949Z,14.87
2019-04-30T08:12:42.632Z,15.04
2019-04-30T08:13:40.653Z,15.13
2019-04-30T08:14:39.088Z,15.18
2019-04-30T08:15:37.641Z,14.75
2019-04-30T08:16:44.620Z,14.30
2019-04-30T08:17:38.929Z,14.31
2019-04-30T08:18:39.240Z,14.21
2019-04-30T08:19:38.464Z,13.98
2019-04-30T08:20:39.297Z,13.84
2019-04-30T08:21:38.710Z,13.79
2019-04-30T08:22:40.910Z,14.04
2019-04-30T08:23:39.581Z,14.04
2019-04-30T08:24:39.114Z,13.79
2019-04-30T08:25:39.060Z,13.53
2019-04-30T08:26:39.638Z,13.71
2019-04-30T08:27:39.317Z,14.09
2019-04-30T08:28:38.661Z,14.34
2019-04-30T08:29:39.364Z,14.61
2019-04-30T08:30:39.135Z,15.00
2019-04-30T08:31:40.590Z,15.31
2019-04-30T08:32:38.688Z,15.31
2019-04-30T08:33:37.449Z,15.52
2019-04-30T08:34:39.240Z,15.66
2019-04-30T08:35:39.618Z,15.81
2019-04-30T08:36:38.694Z,16.17
2019-04-30T08:37:38.549Z,16.37
2019-04-30T08:38:39.324Z,16.69
2019-04-30T08:39:39.595Z,16.99
2019-04-30T08:40:39.265Z,17.40
2019-04-30T08:41:39.241Z,17.81
2019-04-30T08:42:39.744Z,18.21
2019-04-30T08:43:39.275Z,18.49
2019-04-30T08:44:39.137Z,18.46
2019-04-30T08:45:38.546Z,18.28
2019-04-30T08:46:38.743Z,17.81
2019-04-30T08:47:49.358Z,17.49
2019-04-30T08:48:47.885Z,17.38
2019-04-30T08:49:40.495Z,17.38
2019-04-30T08:50:39.065Z,17.49
2019-04-30T08:51:38.793Z,17.60
2019-04-30T08:52:39.310Z,17.65
2019-04-30T08:53:38.498Z,17.63
2019-04-30T08:54:39.239Z,17.79
2019-04-30T08:55:39.019Z,17.83
2019-04-30T08:56:38.803Z,17.96
2019-04-30T08:57:37.207Z,17.94
2019-04-30T08:58:39.078Z,17.95
2019-04-30T08:59:39.370Z,18.13
2019-04-30T09:00:38.534Z,18.44
2019-04-30T09:01:38.720Z,18.62
2019-04-30T09:02:38.811Z,18.89
2019-04-30T09:03:39.143Z,19.09
2019-04-30T09:04:38.840Z,19.09
2019-04-30T09:05:38.609Z,19.21
2019-04-30T09:06:38.923Z,19.12
2019-04-30T09:07:38.687Z,19.10
2019-04-30T09:08:37.078Z,18.94
2019-04-30T09:09:38.884Z,18.87
2019-04-30T09:10:37.063Z,19.10
2019-04-30T09:11:51.397Z,19.05
2019-04-30T09:12:39.873Z,19.20
2019-04-30T09:13:38.858Z,19.25
2019-04-30T09:14:40.441Z,18.90
2019-04-30T09:15:37.001Z,17.86
2019-04-30T09:16:39.081Z,16.75
2019-04-30T09:17:38.573Z,16.04
2019-04-30T09:18:49.450Z,15.43
2019-04-30T09:19:38.585Z,15.09
2019-04-30T09:20:36.943Z,14.79
2019-04-30T09:21:39.960Z,14.52
2019-04-30T09:22:36.931Z,14.24
2019-04-30T09:23:44.692Z,13.90
2019-04-30T09:24:39.224Z,13.62
2019-04-30T09:25:36.894Z,13.39
2019-04-30T09:26:36.875Z,13.43
2019-04-30T09:27:36.864Z,13.55
2019-04-30T09:28:36.860Z,13.66
2019-04-30T09:29:36.866Z,13.65
2019-04-30T09:30:38.623Z,13.59
2019-04-30T09:31:36.831Z,13.25
2019-04-30T09:32:36.815Z,13.12
2019-04-30T09:33:36.807Z,12.94
2019-04-30T09:34:38.455Z,12.87
2019-04-30T09:35:36.796Z,12.84
2019-04-30T09:36:39.012Z,12.94
2019-04-30T09:37:36.762Z,12.95
2019-04-30T09:38:36.749Z,13.07
2019-04-30T09:39:36.747Z,13.07
2019-04-30T09:40:39.837Z,13.25
2019-04-30T09:41:36.726Z,13.63
2019-04-30T09:42:36.706Z,13.63
2019-04-30T09:43:36.699Z,13.61
2019-04-30T09:44:36.687Z,13.90
2019-04-30T09:45:38.429Z,14.35
2019-04-30T09:46:36.663Z,14.74
2019-04-30T09:47:36.657Z,14.93
2019-04-30T09:48:38.494Z,15.18
2019-04-30T09:49:49.412Z,15.35
2019-04-30T09:50:38.805Z,15.58
2019-04-30T09:51:36.646Z,15.77
2019-04-30T09:52:39.128Z,16.04
2019-04-30T09:53:36.626Z,15.62
2019-04-30T09:54:36.581Z,15.52
2019-04-30T09:55:36.568Z,15.56
2019-04-30T09:56:36.566Z,15.68
2019-04-30T09:57:36.586Z,15.71
2019-04-30T09:58:36.537Z,15.98
2019-04-30T09:59:36.522Z,15.95
2019-04-30T10:00:36.511Z,16.07
2019-04-30T10:01:36.501Z,16.25
2019-04-30T10:02:36.493Z,16.42
2019-04-30T10:03:37.329Z,16.48
2019-04-30T10:04:36.783Z,16.62
2019-04-30T10:05:36.460Z,16.65
2019-04-30T10:06:40.033Z,16.63
2019-04-30T10:07:36.437Z,16.73
2019-04-30T10:08:47.838Z,16.85
2019-04-30T10:09:37.412Z,17.03
2019-04-30T10:10:36.405Z,17.09
2019-04-30T10:11:36.395Z,17.33
2019-04-30T10:12:36.382Z,17.66
2019-04-30T10:13:36.373Z,18.02
2019-04-30T10:14:36.402Z,18.10
2019-04-30T10:15:36.350Z,18.29
2019-04-30T10:16:36.340Z,18.42
2019-04-30T10:17:36.334Z,18.57
2019-04-30T10:18:36.317Z,18.62
2019-04-30T10:19:36.312Z,18.87
2019-04-30T10:20:46.705Z,18.97
2019-04-30T10:21:36.283Z,19.31
2019-04-30T10:22:36.276Z,19.52
2019-04-30T10:23:36.273Z,19.72
2019-04-30T10:24:36.250Z,20.00
2019-04-30T10:25:36.291Z,20.30
2019-04-30T10:26:36.246Z,20.54
2019-04-30T10:27:36.254Z,20.87
2019-04-30T10:28:36.239Z,20.94
2019-04-30T10:29:36.204Z,20.83
2019-04-30T10:30:36.194Z,21.00
2019-04-30T10:31:36.228Z,20.90
2019-04-30T10:32:36.172Z,20.69
2019-04-30T10:33:36.160Z,20.57
2019-04-30T10:34:36.151Z,20.33
2019-04-30T10:35:36.141Z,19.92
2019-04-30T10:36:36.131Z,19.76
2019-04-30T10:37:36.166Z,19.71
2019-04-30T10:38:36.112Z,19.75
2019-04-30T10:39:36.167Z,19.50
2019-04-30T10:40:36.098Z,19.06
2019-04-30T10:41:36.079Z,18.76
2019-04-30T10:42:36.065Z,18.86
2019-04-30T10:43:36.059Z,18.86
2019-04-30T10:44:36.037Z,18.89
2019-04-30T10:45:36.028Z,19.06
2019-04-30T10:46:36.086Z,18.89
2019-04-30T10:47:36.023Z,18.82
2019-04-30T10:48:35.998Z,18.14
2019-04-30T10:49:35.995Z,17.60
2019-04-30T10:50:35.992Z,17.53
2019-04-30T10:51:46.735Z,17.55
2019-04-30T10:52:35.952Z,17.76
2019-04-30T10:53:35.954Z,17.89
2019-04-30T10:54:35.940Z,17.91
2019-04-30T10:55:35.934Z,17.79
2019-04-30T10:56:35.919Z,17.36
2019-04-30T10:57:35.921Z,17.38
2019-04-30T10:58:35.915Z,17.38
2019-04-30T10:59:35.889Z,17.15
2019-04-30T11:00:35.882Z,16.73
2019-04-30T11:01:35.857Z,16.37
2019-04-30T11:02:35.851Z,16.30
2019-04-30T11:03:35.878Z,16.40
2019-04-30T11:04:35.825Z,16.66
2019-04-30T11:05:35.824Z,17.05
2019-04-30T11:06:35.805Z,17.58
2019-04-30T11:07:35.799Z,18.04
2019-04-30T11:08:35.784Z,18.53
2019-04-30T11:09:35.786Z,18.69
2019-04-30T11:10:35.777Z,18.65
2019-04-30T11:11:35.757Z,18.60
2019-04-30T11:12:35.751Z,19.01
2019-04-30T11:13:35.741Z,19.20
2019-04-30T11:14:35.733Z,18.65
2019-04-30T11:15:35.751Z,18.34
2019-04-30T11:16:35.721Z,17.96
2019-04-30T11:17:35.856Z,17.87
2019-04-30T11:18:35.864Z,17.95
2019-04-30T11:19:35.892Z,17.95
2019-04-30T11:20:35.882Z,17.89
2019-04-30T11:21:35.817Z,17.84
2019-04-30T11:22:47.902Z,18.04
2019-04-30T11:23:35.764Z,18.29
2019-04-30T11:24:40.999Z,18.66
2019-04-30T11:25:37.338Z,18.96
2019-04-30T11:26:36.080Z,19.30
2019-04-30T11:27:36.128Z,19.64
2019-04-30T11:28:35.790Z,19.92
2019-04-30T11:29:35.679Z,20.19
2019-04-30T11:30:35.774Z,20.53
2019-04-30T11:31:35.765Z,20.81
2019-04-30T11:32:35.795Z,21.11
2019-04-30T11:33:35.764Z,21.37
2019-04-30T11:34:35.512Z,21.46
2019-04-30T11:35:35.497Z,21.66
2019-04-30T11:36:35.494Z,21.91
2019-04-30T11:37:35.499Z,22.04
2019-04-30T11:38:35.471Z,22.23
2019-04-30T11:39:35.456Z,22.35
2019-04-30T11:40:37.953Z,22.49
2019-04-30T11:41:35.448Z,22.61
2019-04-30T11:42:35.427Z,22.74
2019-04-30T11:43:35.425Z,22.81
2019-04-30T11:44:35.403Z,22.89
2019-04-30T11:45:35.391Z,23.09
2019-04-30T11:46:35.401Z,23.16
2019-04-30T11:47:35.372Z,23.35
2019-04-30T11:48:35.402Z,23.39
2019-04-30T11:49:35.352Z,23.41
2019-04-30T11:50:35.336Z,23.62
2019-04-30T11:51:35.331Z,23.68
2019-04-30T11:52:35.335Z,23.72
2019-04-30T11:53:49.012Z,23.74
2019-04-30T11:54:35.296Z,23.86
2019-04-30T11:55:35.285Z,24.00
2019-04-30T11:56:38.282Z,24.06
2019-04-30T11:57:35.264Z,24.23
2019-04-30T11:58:35.258Z,24.21
2019-04-30T11:59:35.249Z,24.33
2019-04-30T12:00:35.229Z,24.44
2019-04-30T12:01:35.233Z,24.49
2019-04-30T12:02:35.217Z,24.51
2019-04-30T12:03:35.204Z,24.59
2019-04-30T12:04:35.192Z,24.66
2019-04-30T12:05:35.177Z,24.74
2019-04-30T12:06:35.213Z,24.82
2019-04-30T12:07:35.162Z,24.89
2019-04-30T12:08:35.150Z,24.92
2019-04-30T12:09:35.140Z,24.97
2019-04-30T12:10:35.125Z,25.01
2019-04-30T12:11:35.114Z,25.14
2019-04-30T12:12:35.120Z,25.12
2019-04-30T12:13:35.091Z,25.19
2019-04-30T12:14:35.106Z,25.27
2019-04-30T12:15:35.073Z,25.35
2019-04-30T12:16:35.066Z,25.39
2019-04-30T12:17:35.057Z,25.45
2019-04-30T12:18:35.085Z,25.51
2019-04-30T12:19:35.027Z,25.54
2019-04-30T12:20:35.018Z,25.60
2019-04-30T12:21:35.009Z,25.64
2019-04-30T12:22:34.996Z,25.69
2019-04-30T12:23:34.989Z,25.71
2019-04-30T12:24:45.821Z,25.79
2019-04-30T12:25:34.970Z,25.85
2019-04-30T12:26:34.957Z,25.85
2019-04-30T12:27:34.952Z,25.83
2019-04-30T12:28:34.940Z,25.93
2019-04-30T12:29:34.964Z,25.81
2019-04-30T12:30:34.911Z,25.83
2019-04-30T12:31:34.903Z,25.82
2019-04-30T12:32:35.305Z,25.81
2019-04-30T12:33:34.885Z,25.94
2019-04-30T12:34:34.871Z,25.89
2019-04-30T12:35:34.881Z,25.93
2019-04-30T12:36:34.852Z,25.93
2019-04-30T12:37:34.842Z,25.97
2019-04-30T12:38:34.828Z,25.93
2019-04-30T12:39:34.816Z,26.01
2019-04-30T12:40:34.812Z,25.94
2019-04-30T12:41:34.804Z,25.97
2019-04-30T12:42:34.787Z,25.94
2019-04-30T12:43:34.778Z,25.94
2019-04-30T12:44:34.784Z,26.04
2019-04-30T12:45:34.753Z,26.08
2019-04-30T12:46:34.796Z,26.08
2019-04-30T12:47:34.736Z,25.98
2019-04-30T12:48:34.727Z,25.98
2019-04-30T12:49:34.712Z,26.11
2019-04-30T12:50:34.709Z,26.03
2019-04-30T12:51:45.262Z,26.08
2019-04-30T12:52:35.724Z,26.13
2019-04-30T12:53:37.422Z,26.04